createdAt,value
2022-11-06T00:02:20.967Z,61.73
2022-11-06T00:04:49.313Z,60.30
2022-11-06T00:07:24.816Z,60.17
2022-11-06T00:09:51.716Z,60.27
2022-11-06T00:12:22.677Z,60.50
2022-11-06T00:14:51.186Z,61.30
2022-11-06T00:17:18.081Z,60.67
2022-11-06T00:19:44.962Z,60.97
2022-11-06T00:22:11.933Z,60.20
2022-11-06T00:24:38.814Z,61.23
2022-11-06T00:27:05.685Z,60.73
2022-11-06T00:29:33.038Z,62.63
2022-11-06T00:31:59.936Z,60.63
2022-11-06T00:34:26.826Z,62.77
2022-11-06T00:36:53.712Z,61.07
2022-11-06T00:39:20.598Z,62.80
2022-11-06T00:41:47.493Z,61.47
2022-11-06T00:44:14.510Z,61.03
2022-11-06T00:46:41.451Z,60.87
2022-11-06T00:49:09.353Z,60.80
2022-11-06T00:51:43.013Z,60.47
2022-11-06T00:54:16.358Z,60.00
2022-11-06T00:56:52.689Z,60.70
2022-11-06T00:59:19.602Z,60.53
2022-11-06T01:01:53.105Z,60.57
2022-11-06T01:04:23.778Z,62.03
2022-11-06T01:06:56.880Z,60.23
2022-11-06T01:09:27.761Z,59.60
2022-11-06T01:12:15.181Z,62.10
2022-11-06T01:14:43.771Z,62.43
2022-11-06T01:17:11.101Z,62.07
2022-11-06T01:19:41.060Z,60.50
2022-11-06T01:22:13.332Z,59.63
2022-11-06T01:24:40.307Z,59.40
2022-11-06T01:27:27.615Z,61.40
2022-11-06T01:29:55.572Z,61.03
2022-11-06T01:32:28.640Z,61.07
2022-11-06T01:34:55.921Z,60.90
2022-11-06T01:37:23.201Z,60.67
2022-11-06T01:39:56.130Z,61.00
2022-11-06T01:42:28.466Z,60.77
2022-11-06T01:45:25.238Z,61.23
2022-11-06T01:47:52.203Z,60.80
2022-11-06T01:50:22.349Z,60.77
2022-11-06T01:52:51.640Z,60.27
2022-11-06T01:55:27.308Z,59.93
2022-11-06T01:57:55.948Z,61.27
2022-11-06T02:00:23.598Z,62.27
2022-11-06T02:02:51.878Z,62.40
2022-11-06T02:05:19.399Z,63.17
2022-11-06T02:07:48.155Z,62.53
2022-11-06T02:10:20.481Z,65.30
2022-11-06T02:13:15.955Z,63.67
2022-11-06T02:16:17.806Z,63.17
2022-11-06T02:19:28.243Z,63.03
2022-11-06T02:22:15.007Z,62.17
2022-11-06T02:25:07.659Z,63.23
2022-11-06T02:27:37.901Z,62.07
2022-11-06T02:30:14.086Z,61.67
2022-11-06T02:33:21.645Z,60.97
2022-11-06T02:36:01.884Z,60.97
2022-11-06T02:38:38.963Z,62.07
2022-11-06T02:41:22.743Z,60.87
2022-11-06T02:43:55.748Z,61.40
2022-11-06T02:46:37.780Z,63.00
2022-11-06T02:49:30.709Z,63.37
2022-11-06T02:52:05.554Z,61.77
2022-11-06T02:54:38.654Z,64.27
2022-11-06T02:57:10.962Z,63.50
2022-11-06T03:00:02.874Z,62.40
2022-11-06T03:02:37.551Z,62.40
2022-11-06T03:05:32.473Z,61.53
2022-11-06T03:08:05.701Z,60.90
2022-11-06T03:10:46.438Z,59.80
2022-11-06T03:13:53.022Z,60.80
2022-11-06T03:16:29.029Z,61.00
2022-11-06T03:19:22.292Z,60.47
2022-11-06T03:22:02.993Z,60.77
2022-11-06T03:24:54.327Z,60.30
2022-11-06T03:27:35.430Z,60.43
2022-11-06T03:30:08.337Z,60.47
2022-11-06T03:33:14.029Z,61.47
2022-11-06T03:35:53.180Z,59.43
2022-11-06T03:38:36.133Z,60.07
2022-11-06T03:41:14.353Z,61.67
2022-11-06T03:43:44.328Z,60.40
2022-11-06T03:46:19.488Z,61.70
2022-11-06T03:49:01.123Z,62.57
2022-11-06T03:51:40.328Z,63.30
2022-11-06T03:54:20.521Z,63.20
2022-11-06T03:56:57.570Z,62.30
2022-11-06T03:59:33.092Z,61.47
2022-11-06T04:02:01.826Z,60.97
2022-11-06T04:04:36.940Z,61.37
2022-11-06T04:07:10.910Z,64.30
2022-11-06T04:10:01.444Z,61.20
2022-11-06T04:13:06.345Z,59.53
2022-11-06T04:15:43.093Z,59.50
2022-11-06T04:18:20.225Z,60.67
2022-11-06T04:21:25.043Z,60.57
2022-11-06T04:24:20.091Z,60.70
2022-11-06T04:27:11.488Z,61.77
2022-11-06T04:30:04.872Z,61.17
2022-11-06T04:32:50.050Z,60.23
2022-11-06T04:35:49.126Z,61.83
2022-11-06T04:38:41.118Z,62.13
2022-11-06T04:41:21.314Z,61.20
2022-11-06T04:44:23.374Z,61.77
2022-11-06T04:46:57.853Z,62.97
2022-11-06T04:49:27.338Z,62.17
2022-11-06T04:51:54.977Z,62.20
2022-11-06T04:54:22.628Z,61.87
2022-11-06T04:56:50.389Z,61.17
2022-11-06T04:59:18.664Z,61.63
2022-11-06T05:01:46.957Z,61.33
2022-11-06T05:04:15.148Z,60.93
2022-11-06T05:06:42.034Z,60.87
2022-11-06T05:09:08.911Z,60.13
2022-11-06T05:11:36.191Z,60.83
2022-11-06T05:14:03.094Z,60.43
2022-11-06T05:16:30.454Z,61.67
2022-11-06T05:18:57.340Z,61.57
2022-11-06T05:21:43.215Z,60.87
2022-11-06T05:24:10.274Z,60.47
2022-11-06T05:26:37.203Z,61.47
2022-11-06T05:29:04.096Z,60.50
2022-11-06T05:31:31.081Z,59.93
2022-11-06T05:33:57.967Z,59.43
2022-11-06T05:36:24.910Z,60.03
2022-11-06T05:38:51.945Z,60.47
2022-11-06T05:41:18.814Z,60.27
2022-11-06T05:43:46.046Z,61.03
2022-11-06T05:46:35.755Z,60.37
2022-11-06T05:49:00.195Z,61.20
2022-11-06T05:51:27.072Z,65.07
2022-11-06T05:53:55.516Z,66.23
2022-11-06T05:56:22.399Z,62.63
2022-11-06T05:58:49.274Z,60.70
2022-11-06T06:01:16.802Z,60.77
2022-11-06T06:03:44.073Z,57.93
2022-11-06T06:06:11.365Z,58.67
2022-11-06T06:08:38.656Z,59.47
2022-11-06T06:11:10.189Z,57.83
2022-11-06T06:13:37.848Z,57.63
2022-11-06T06:16:05.113Z,58.70
2022-11-06T06:18:32.437Z,58.83
2022-11-06T06:21:00.340Z,58.90
2022-11-06T06:23:27.624Z,61.20
2022-11-06T06:25:56.183Z,76.03
2022-11-06T06:28:23.465Z,63.67
2022-11-06T06:30:50.334Z,58.73
2022-11-06T06:33:17.744Z,61.60
2022-11-06T06:35:45.020Z,60.70
2022-11-06T06:38:12.663Z,59.93
2022-11-06T06:40:40.115Z,63.43
2022-11-06T06:43:07.410Z,62.77
2022-11-06T06:45:34.678Z,61.90
2022-11-06T06:48:06.094Z,59.07
2022-11-06T06:50:33.491Z,57.20
2022-11-06T06:53:00.871Z,55.83
2022-11-06T06:55:28.126Z,57.27
2022-11-06T06:57:59.927Z,56.67
2022-11-06T07:00:28.136Z,57.30
2022-11-06T07:02:55.504Z,59.93
2022-11-06T07:05:22.807Z,58.73
2022-11-06T07:07:50.088Z,87.07
2022-11-06T07:10:17.548Z,80.70
2022-11-06T07:12:44.936Z,72.63
2022-11-06T07:15:12.345Z,71.87
2022-11-06T07:17:40.688Z,61.03
2022-11-06T07:20:09.566Z,61.07
2022-11-06T07:22:37.673Z,60.20
2022-11-06T07:25:06.373Z,59.87
2022-11-06T07:27:33.822Z,59.23
2022-11-06T07:30:01.304Z,58.70
2022-11-06T07:32:28.781Z,58.97
2022-11-06T07:34:56.131Z,58.07
2022-11-06T07:37:23.778Z,59.10
2022-11-06T07:39:50.676Z,57.90
2022-11-06T07:42:18.088Z,58.03
2022-11-06T07:44:57.565Z,55.87
2022-11-06T07:47:24.999Z,56.03
2022-11-06T07:49:52.283Z,57.60
2022-11-06T07:52:19.613Z,56.83
2022-11-06T07:54:46.888Z,57.93
2022-11-06T07:57:14.209Z,91.10
2022-11-06T07:59:42.634Z,68.80
2022-11-06T08:02:13.640Z,58.40
2022-11-06T08:04:41.104Z,57.83
2022-11-06T08:07:08.533Z,57.33
2022-11-06T08:09:36.142Z,59.60
2022-11-06T08:12:03.673Z,69.03
2022-11-06T08:14:30.671Z,58.67
2022-11-06T08:16:58.541Z,60.33
2022-11-06T08:19:25.970Z,59.90
2022-11-06T08:21:53.322Z,58.67
2022-11-06T08:24:22.066Z,58.80
2022-11-06T08:26:49.572Z,58.70
2022-11-06T08:29:17.087Z,58.63
2022-11-06T08:31:44.385Z,59.83
2022-11-06T08:34:11.773Z,57.87
2022-11-06T08:36:50.150Z,57.47
2022-11-06T08:39:17.443Z,58.43
2022-11-06T08:41:45.237Z,58.33
2022-11-06T08:44:12.197Z,57.73
2022-11-06T08:46:39.508Z,58.73
2022-11-06T08:49:06.474Z,58.77
2022-11-06T08:51:33.757Z,60.73
2022-11-06T08:54:01.239Z,69.83
2022-11-06T08:56:28.718Z,62.80
2022-11-06T08:58:56.054Z,58.17
2022-11-06T09:01:24.282Z,57.97
2022-11-06T09:03:51.830Z,59.13
2022-11-06T09:06:18.810Z,65.47
2022-11-06T09:08:45.815Z,58.63
2022-11-06T09:11:13.259Z,57.47
2022-11-06T09:13:40.993Z,58.87
2022-11-06T09:16:12.878Z,58.30
2022-11-06T09:18:43.197Z,60.77
2022-11-06T09:21:10.615Z,57.77
2022-11-06T09:23:38.219Z,58.33
2022-11-06T09:26:05.619Z,63.60
2022-11-06T09:28:32.549Z,69.70
2022-11-06T09:30:59.440Z,65.40
2022-11-06T09:33:26.720Z,60.73
2022-11-06T09:35:54.058Z,58.50
2022-11-06T09:38:20.984Z,57.47
2022-11-06T09:40:56.455Z,57.57
2022-11-06T09:44:25.224Z,58.83
2022-11-06T09:46:54.075Z,59.93
2022-11-06T09:49:40.854Z,61.13
2022-11-06T09:52:24.227Z,59.60
2022-11-06T09:55:00.935Z,65.53
2022-11-06T09:57:35.238Z,64.00
2022-11-06T10:00:05.435Z,58.63
2022-11-06T10:02:55.838Z,58.40
2022-11-06T10:05:31.860Z,60.57
2022-11-06T10:08:03.322Z,58.60
2022-11-06T10:10:53.543Z,58.77
2022-11-06T10:13:58.170Z,63.27
2022-11-06T10:16:34.361Z,76.33
2022-11-06T10:19:15.667Z,90.60
2022-11-06T10:21:49.015Z,73.17
2022-11-06T10:24:30.621Z,62.90
2022-11-06T10:26:58.668Z,58.80
2022-11-06T10:30:14.781Z,59.13
2022-11-06T10:33:20.392Z,59.07
2022-11-06T10:36:20.488Z,57.70
2022-11-06T10:38:49.110Z,57.93
2022-11-06T10:41:26.392Z,57.97
2022-11-06T10:44:39.354Z,64.37
2022-11-06T10:47:22.640Z,61.00
2022-11-06T10:49:56.835Z,59.70
2022-11-06T10:52:51.101Z,59.00
2022-11-06T10:55:58.335Z,58.33
2022-11-06T10:58:31.841Z,58.03
2022-11-06T11:01:04.683Z,59.13
2022-11-06T11:03:43.210Z,58.63
2022-11-06T11:06:10.305Z,60.63
2022-11-06T11:08:44.543Z,60.47
2022-11-06T11:11:14.363Z,59.43
2022-11-06T11:13:43.842Z,64.77
2022-11-06T11:16:22.900Z,62.83
2022-11-06T11:18:51.315Z,59.47
2022-11-06T11:21:27.761Z,59.47
2022-11-06T11:24:00.646Z,60.93
2022-11-06T11:26:30.418Z,60.07
2022-11-06T11:29:01.077Z,60.63
2022-11-06T11:31:34.250Z,60.97
2022-11-06T11:34:05.379Z,60.47
2022-11-06T11:36:54.746Z,61.33
2022-11-06T11:39:45.152Z,60.57
2022-11-06T11:42:29.349Z,61.60
2022-11-06T11:45:15.868Z,61.63
2022-11-06T11:47:49.498Z,61.33
2022-11-06T11:50:31.501Z,61.93
2022-11-06T11:53:20.119Z,61.90
2022-11-06T11:55:50.707Z,60.20
2022-11-06T11:58:28.860Z,64.63
2022-11-06T12:01:03.112Z,60.50
2022-11-06T12:03:42.271Z,63.53
2022-11-06T12:06:17.381Z,60.90
2022-11-06T12:08:51.534Z,63.60
2022-11-06T12:11:29.366Z,63.30
2022-11-06T12:14:21.494Z,57.27
2022-11-06T12:16:52.646Z,57.60
2022-11-06T12:19:22.598Z,65.27
2022-11-06T12:21:57.245Z,57.17
2022-11-06T12:24:47.288Z,61.60
2022-11-06T12:27:23.357Z,59.13
2022-11-06T12:30:07.355Z,60.70
2022-11-06T12:32:58.437Z,57.63
2022-11-06T12:35:31.750Z,63.80
2022-11-06T12:38:41.598Z,58.63
2022-11-06T12:41:34.275Z,59.47
2022-11-06T12:44:01.607Z,59.67
2022-11-06T12:46:50.980Z,59.37
2022-11-06T12:50:18.604Z,60.03
2022-11-06T12:53:16.627Z,60.87
2022-11-06T12:56:11.067Z,58.80
2022-11-06T12:59:15.157Z,58.43
2022-11-06T13:02:01.137Z,58.50
2022-11-06T13:04:46.963Z,58.97
2022-11-06T13:07:44.725Z,58.33
2022-11-06T13:11:22.744Z,59.27
2022-11-06T13:14:42.028Z,77.03
2022-11-06T13:17:48.937Z,59.60
2022-11-06T13:20:38.560Z,60.90
2022-11-06T13:23:43.332Z,59.80
2022-11-06T13:26:29.213Z,59.90
2022-11-06T13:29:00.603Z,58.83
2022-11-06T13:31:37.691Z,59.63
2022-11-06T13:34:06.358Z,59.67
2022-11-06T13:36:37.015Z,60.53
2022-11-06T13:39:15.856Z,60.90
2022-11-06T13:41:42.736Z,61.83
2022-11-06T13:44:18.570Z,61.33
2022-11-06T13:47:09.338Z,65.93
2022-11-06T13:50:09.517Z,58.97
2022-11-06T13:52:47.084Z,61.00
2022-11-06T13:55:41.908Z,59.60
2022-11-06T13:58:29.473Z,58.53
2022-11-06T14:01:15.824Z,59.00
2022-11-06T14:03:55.733Z,58.50
2022-11-06T14:06:25.719Z,58.60
2022-11-06T14:08:59.839Z,58.30
2022-11-06T14:11:55.496Z,59.33
2022-11-06T14:14:22.244Z,60.07
2022-11-06T14:17:18.500Z,59.83
2022-11-06T14:19:50.309Z,61.43
2022-11-06T14:22:26.165Z,63.33
2022-11-06T14:24:57.016Z,70.70
2022-11-06T14:27:28.740Z,64.80
2022-11-06T14:30:50.282Z,67.33
2022-11-06T14:33:40.245Z,67.47
2022-11-06T14:36:36.461Z,69.07
2022-11-06T14:39:10.094Z,83.07
2022-11-06T14:41:38.412Z,72.47
2022-11-06T14:44:28.370Z,72.37
2022-11-06T14:47:01.001Z,68.57
2022-11-06T14:49:38.713Z,67.30
2022-11-06T14:52:11.745Z,70.10
2022-11-06T14:54:42.473Z,65.57
2022-11-06T14:57:16.653Z,64.77
2022-11-06T14:59:43.935Z,65.87
2022-11-06T15:02:19.791Z,66.67
2022-11-06T15:04:54.503Z,65.50
2022-11-06T15:10:43.630Z,61.87
2022-11-06T15:13:16.765Z,62.50
2022-11-06T15:15:53.011Z,63.90
2022-11-06T15:18:23.255Z,65.57
2022-11-06T15:21:00.559Z,64.17
2022-11-06T15:23:50.000Z,71.70
2022-11-06T15:26:32.262Z,67.17
2022-11-06T15:29:23.116Z,63.77
2022-11-06T15:31:58.724Z,67.63
2022-11-06T15:34:42.672Z,65.37
2022-11-06T15:37:24.434Z,72.53
2022-11-06T15:40:00.247Z,73.67
2022-11-06T15:42:37.702Z,74.40
2022-11-06T15:45:23.880Z,71.50
2022-11-06T15:48:22.252Z,67.10
2022-11-06T15:50:49.194Z,66.40
2022-11-06T15:53:22.695Z,65.50
2022-11-06T15:56:09.858Z,65.30
2022-11-06T15:58:38.189Z,66.17
2022-11-06T16:01:07.866Z,68.57
2022-11-06T16:03:54.846Z,69.40
2022-11-06T16:06:22.058Z,68.53
2022-11-06T16:08:51.006Z,65.93
2022-11-06T16:11:20.268Z,67.53
2022-11-06T16:13:47.838Z,67.70
2022-11-06T16:16:37.004Z,66.87
2022-11-06T16:19:36.839Z,64.93
2022-11-06T16:22:07.675Z,69.20
2022-11-06T16:24:47.348Z,68.20
2022-11-06T16:27:15.437Z,68.93
2022-11-06T16:29:49.016Z,69.77
2022-11-06T16:32:23.086Z,67.90
2022-11-06T16:34:51.771Z,74.50
2022-11-06T16:37:18.740Z,71.57
2022-11-06T16:39:55.227Z,83.60
2022-11-06T16:42:35.942Z,72.70
2022-11-06T16:45:07.368Z,72.63
2022-11-06T16:47:34.783Z,73.50
2022-11-06T16:50:02.121Z,73.27
2022-11-06T16:52:35.772Z,76.23
2022-11-06T16:55:16.728Z,73.97
2022-11-06T16:57:57.531Z,74.03
2022-11-06T17:00:32.745Z,73.70
2022-11-06T17:03:20.466Z,74.40
2022-11-06T17:05:56.927Z,74.10
2022-11-06T17:08:42.025Z,75.47
2022-11-06T17:11:21.874Z,75.23
2022-11-06T17:13:50.940Z,72.03
2022-11-06T17:16:21.511Z,70.10
2022-11-06T17:18:49.062Z,75.17
2022-11-06T17:21:20.215Z,72.20
2022-11-06T17:23:47.977Z,76.60
2022-11-06T17:26:35.076Z,76.20
2022-11-06T17:29:02.586Z,77.77
2022-11-06T17:31:30.613Z,78.57
2022-11-06T17:33:57.898Z,79.03
2022-11-06T17:36:27.917Z,81.57
2022-11-06T17:38:56.921Z,84.30
2022-11-06T17:41:31.254Z,85.10
2022-11-06T17:44:10.796Z,85.23
2022-11-06T17:46:44.958Z,87.37
2022-11-06T17:49:17.575Z,86.53
2022-11-06T17:52:00.262Z,86.80
2022-11-06T17:54:33.424Z,88.33
2022-11-06T17:57:03.226Z,87.63
2022-11-06T17:59:31.210Z,88.27
2022-11-06T18:01:58.670Z,87.13
2022-11-06T18:04:27.953Z,90.60
2022-11-06T18:06:55.158Z,86.13
2022-11-06T18:09:24.207Z,85.80
2022-11-06T18:11:53.457Z,85.03
2022-11-06T18:14:22.414Z,86.17
2022-11-06T18:16:49.969Z,85.70
2022-11-06T18:19:22.463Z,82.57
2022-11-06T18:21:50.278Z,81.40
2022-11-06T18:24:17.624Z,82.77
2022-11-06T18:26:44.632Z,81.73
2022-11-06T18:29:12.915Z,80.57
2022-11-06T18:31:40.163Z,81.73
2022-11-06T18:34:12.889Z,86.03
2022-11-06T18:36:42.257Z,85.47
2022-11-06T18:39:09.178Z,85.93
2022-11-06T18:41:36.804Z,84.53
2022-11-06T18:44:04.000Z,80.43
2022-11-06T18:46:31.702Z,82.37
2022-11-06T18:48:59.274Z,82.83
2022-11-06T18:51:36.026Z,81.50
2022-11-06T18:54:07.487Z,85.97
2022-11-06T18:56:38.962Z,86.33
2022-11-06T18:59:10.290Z,87.10
2022-11-06T19:01:37.475Z,88.33
2022-11-06T19:04:05.108Z,89.57
2022-11-06T19:06:32.813Z,89.50
2022-11-06T19:08:59.775Z,88.77
2022-11-06T19:11:26.701Z,87.97
2022-11-06T19:13:53.826Z,87.40
2022-11-06T19:16:20.904Z,91.10
2022-11-06T19:21:30.293Z,91.83
2022-11-06T19:24:05.244Z,96.13
2022-11-06T19:26:36.818Z,93.27
2022-11-06T19:29:08.222Z,92.93
2022-11-06T19:31:37.413Z,92.50
2022-11-06T19:34:06.947Z,92.53
2022-11-06T19:36:35.172Z,92.57
2022-11-06T19:39:02.222Z,87.87
2022-11-06T19:41:30.112Z,85.97
2022-11-06T19:43:57.135Z,82.53
2022-11-06T19:46:27.274Z,81.80
2022-11-06T19:48:57.899Z,80.10
2022-11-06T19:51:25.973Z,78.50
2022-11-06T19:53:53.862Z,77.47
2022-11-06T19:56:22.100Z,76.80
2022-11-06T19:58:50.287Z,79.47
2022-11-06T20:01:18.125Z,84.27
2022-11-06T20:03:45.383Z,86.30
2022-11-06T20:06:13.420Z,87.70
2022-11-06T20:08:40.736Z,90.33
2022-11-06T20:11:14.944Z,94.53
2022-11-06T20:13:43.247Z,91.53
2022-11-06T20:16:19.580Z,91.80
2022-11-06T20:18:56.050Z,83.50
2022-11-06T20:21:26.323Z,77.77
2022-11-06T20:23:54.062Z,77.13
2022-11-06T20:26:21.768Z,76.20
2022-11-06T20:28:49.429Z,72.63
2022-11-06T20:31:21.590Z,73.17
2022-11-06T20:33:49.134Z,71.90
2022-11-06T20:36:28.459Z,70.33
2022-11-06T20:38:59.476Z,70.70
2022-11-06T20:41:27.604Z,69.60
2022-11-06T20:43:55.552Z,70.87
2022-11-06T20:46:23.609Z,71.03
2022-11-06T20:48:51.362Z,70.70
2022-11-06T20:51:22.738Z,71.53
2022-11-06T20:53:50.381Z,69.23
2022-11-06T20:56:20.698Z,70.00
2022-11-06T20:58:48.298Z,71.13
2022-11-06T21:01:19.973Z,72.63
2022-11-06T21:03:49.621Z,75.07
2022-11-06T21:06:18.362Z,78.90
2022-11-06T21:08:45.894Z,83.83
2022-11-06T21:11:20.547Z,77.73
2022-11-06T21:13:49.922Z,73.60
2022-11-06T21:16:21.022Z,72.40
2022-11-06T21:18:48.718Z,70.60
2022-11-06T21:21:20.850Z,72.23
2022-11-06T21:23:51.984Z,70.83
2022-11-06T21:26:21.399Z,73.07
2022-11-06T21:28:48.562Z,71.47
2022-11-06T21:31:19.851Z,71.10
2022-11-06T21:33:49.740Z,70.97
2022-11-06T21:36:23.486Z,69.70
2022-11-06T21:38:51.041Z,70.50
2022-11-06T21:41:23.169Z,70.70
2022-11-06T21:43:50.558Z,70.77
2022-11-06T21:46:19.050Z,70.60
2022-11-06T21:48:47.619Z,69.37
2022-11-06T21:51:22.482Z,69.10
2022-11-06T21:54:13.189Z,69.37
2022-11-06T21:56:41.741Z,67.43
2022-11-06T21:59:12.512Z,68.03
2022-11-06T22:01:40.877Z,67.87
2022-11-06T22:04:08.868Z,66.43
2022-11-06T22:06:36.115Z,67.17
2022-11-06T22:09:03.772Z,67.73
2022-11-06T22:11:37.327Z,66.83
2022-11-06T22:14:08.457Z,66.83
2022-11-06T22:16:39.264Z,66.43
2022-11-06T22:19:08.444Z,65.80
2022-11-06T22:21:38.064Z,66.87
2022-11-06T22:24:07.159Z,65.30
2022-11-06T22:26:35.535Z,66.30
2022-11-06T22:29:07.555Z,64.53
2022-11-06T22:31:35.047Z,65.70
2022-11-06T22:34:02.324Z,71.07
2022-11-06T22:36:29.605Z,73.73
2022-11-06T22:38:58.874Z,73.40
2022-11-06T22:41:26.237Z,73.03
2022-11-06T22:43:57.070Z,73.33
2022-11-06T22:46:24.653Z,71.77
2022-11-06T22:48:52.856Z,71.63
2022-11-06T22:51:24.207Z,71.63
2022-11-06T22:53:52.510Z,68.60
2022-11-06T22:56:21.268Z,70.33
2022-11-06T22:58:52.407Z,69.13
2022-11-06T23:01:26.026Z,67.33
2022-11-06T23:03:56.833Z,68.20
2022-11-06T23:06:25.470Z,68.13
2022-11-06T23:08:52.600Z,68.20
2022-11-06T23:11:20.182Z,66.97
2022-11-06T23:13:47.440Z,65.97
2022-11-06T23:16:18.080Z,70.67
2022-11-06T23:18:45.685Z,67.10
2022-11-06T23:21:16.621Z,66.67
2022-11-06T23:23:45.201Z,69.10
2022-11-06T23:26:18.454Z,67.43
2022-11-06T23:28:46.070Z,67.53
2022-11-06T23:31:15.366Z,68.87
2022-11-06T23:33:43.530Z,68.30
2022-11-06T23:36:13.781Z,67.40
2022-11-06T23:38:41.195Z,66.87
2022-11-06T23:41:33.018Z,70.40
2022-11-06T23:44:01.491Z,68.23
2022-11-06T23:46:32.968Z,72.43
2022-11-06T23:49:00.579Z,67.47
2022-11-06T23:51:28.161Z,68.57
2022-11-06T23:53:55.773Z,67.33
2022-11-06T23:56:23.062Z,69.17
2022-11-06T23:58:50.334Z,68.33
